createdAt,value
2023-02-18T00:01:41.396Z,82.70
2023-02-18T00:04:11.227Z,83.00
2023-02-18T00:06:40.025Z,82.80
2023-02-18T00:09:09.202Z,82.70
2023-02-18T00:11:38.450Z,82.80
2023-02-18T00:14:09.036Z,82.80
2023-02-18T00:16:37.296Z,82.60
2023-02-18T00:19:07.421Z,83.00
2023-02-18T00:21:37.526Z,83.10
2023-02-18T00:24:06.774Z,83.70
2023-02-18T00:26:35.639Z,82.70
2023-02-18T00:29:04.695Z,82.90
2023-02-18T00:31:35.343Z,82.90
2023-02-18T00:34:04.862Z,83.40
2023-02-18T00:36:33.608Z,82.90
2023-02-18T00:39:05.976Z,82.60
2023-02-18T00:41:36.365Z,82.50
2023-02-18T00:44:05.271Z,82.60
2023-02-18T00:46:34.593Z,83.40
2023-02-18T00:49:02.930Z,82.60
2023-02-18T00:51:31.327Z,82.60
2023-02-18T00:53:59.639Z,82.40
2023-02-18T00:56:29.912Z,82.50
2023-02-18T00:58:58.185Z,82.60
2023-02-18T01:01:27.878Z,82.60
2023-02-18T01:03:56.350Z,83.00
2023-02-18T01:06:24.718Z,82.70
2023-02-18T01:08:53.020Z,83.10
2023-02-18T01:11:21.505Z,82.90
2023-02-18T01:14:16.965Z,82.60
2023-02-18T01:16:45.644Z,83.30
2023-02-18T01:19:13.905Z,83.40
2023-02-18T01:21:42.265Z,83.20
2023-02-18T01:24:10.759Z,83.00
2023-02-18T01:26:39.166Z,83.00
2023-02-18T01:29:07.394Z,83.70
2023-02-18T01:31:37.164Z,82.60
2023-02-18T01:34:05.640Z,82.40
2023-02-18T01:36:33.891Z,82.80
2023-02-18T01:39:02.193Z,82.50
2023-02-18T01:41:30.552Z,82.20
2023-02-18T01:44:14.617Z,82.40
2023-02-18T01:46:44.803Z,82.70
2023-02-18T01:49:16.698Z,82.80
2023-02-18T01:51:49.654Z,82.80
2023-02-18T01:54:23.021Z,82.20
2023-02-18T01:56:55.975Z,82.60
2023-02-18T01:59:28.764Z,82.90
2023-02-18T02:01:59.008Z,83.00
2023-02-18T02:04:27.495Z,82.80
2023-02-18T02:06:56.363Z,82.70
2023-02-18T02:09:27.808Z,82.50
2023-02-18T02:12:29.942Z,82.90
2023-02-18T02:15:31.931Z,83.00
2023-02-18T02:18:27.484Z,83.50
2023-02-18T02:21:34.860Z,83.40
2023-02-18T02:24:38.964Z,83.60
2023-02-18T02:27:16.555Z,83.90
2023-02-18T02:30:19.190Z,84.10
2023-02-18T02:33:30.320Z,85.00
2023-02-18T02:36:04.349Z,84.20
2023-02-18T02:38:38.000Z,83.90
2023-02-18T02:41:18.325Z,84.30
2023-02-18T02:43:57.401Z,83.20
2023-02-18T02:46:31.093Z,82.70
2023-02-18T02:49:06.646Z,82.70
2023-02-18T02:51:42.462Z,83.10
2023-02-18T02:58:43.847Z,82.40
2023-02-18T03:01:32.810Z,81.80
2023-02-18T03:04:44.136Z,81.70
2023-02-18T03:07:30.672Z,81.40
2023-02-18T03:10:19.503Z,81.40
2023-02-18T03:12:54.649Z,81.50
2023-02-18T03:15:29.831Z,82.00
2023-02-18T03:18:03.100Z,81.90
2023-02-18T03:20:37.286Z,81.40
2023-02-18T03:23:12.018Z,82.00
2023-02-18T03:25:41.273Z,82.00
2023-02-18T03:28:13.617Z,82.90
2023-02-18T03:30:44.502Z,83.20
2023-02-18T03:33:16.605Z,83.10
2023-02-18T03:35:46.710Z,83.70
2023-02-18T03:38:24.853Z,83.60
2023-02-18T03:40:53.428Z,83.80
2023-02-18T03:43:22.329Z,83.50
2023-02-18T03:45:50.529Z,83.50
2023-02-18T03:48:18.817Z,83.60
2023-02-18T03:50:46.962Z,83.40
2023-02-18T03:53:16.041Z,83.60
2023-02-18T03:55:46.397Z,83.40
2023-02-18T03:58:14.645Z,83.30
2023-02-18T04:00:42.833Z,83.00
2023-02-18T04:03:11.010Z,82.80
2023-02-18T04:05:39.217Z,82.70
2023-02-18T04:08:07.497Z,82.90
2023-02-18T04:10:35.685Z,82.90
2023-02-18T04:13:05.269Z,82.50
2023-02-18T04:15:34.553Z,82.00
2023-02-18T04:18:02.745Z,82.00
2023-02-18T04:20:31.360Z,82.00
2023-02-18T04:22:59.536Z,81.60
2023-02-18T04:25:27.700Z,81.60
2023-02-18T04:27:55.832Z,81.50
2023-02-18T04:30:26.986Z,81.50
2023-02-18T04:32:55.229Z,81.50
2023-02-18T04:35:23.502Z,81.30
2023-02-18T04:37:51.766Z,81.70
2023-02-18T04:40:20.166Z,81.70
2023-02-18T04:42:48.360Z,81.60
2023-02-18T04:45:16.638Z,81.70
2023-02-18T04:47:46.148Z,81.90
2023-02-18T04:50:14.423Z,82.20
2023-02-18T04:52:42.742Z,82.10
2023-02-18T04:55:11.008Z,82.10
2023-02-18T04:57:39.246Z,82.20
2023-02-18T05:00:11.280Z,82.00
2023-02-18T05:02:39.523Z,82.20
2023-02-18T05:05:09.557Z,82.20
2023-02-18T05:07:38.117Z,82.40
2023-02-18T05:10:07.365Z,82.60
2023-02-18T05:12:35.696Z,82.40
2023-02-18T05:15:04.245Z,82.30
2023-02-18T05:17:32.497Z,82.00
2023-02-18T05:20:00.873Z,82.10
2023-02-18T05:22:30.416Z,82.10
2023-02-18T05:24:58.679Z,82.20
2023-02-18T05:27:26.918Z,81.80
2023-02-18T05:29:55.210Z,81.70
2023-02-18T05:32:23.563Z,81.90
2023-02-18T05:34:51.814Z,81.80
2023-02-18T05:37:20.046Z,81.90
2023-02-18T05:39:49.636Z,82.10
2023-02-18T05:42:17.832Z,82.60
2023-02-18T05:44:46.272Z,82.40
2023-02-18T05:47:14.771Z,82.30
2023-02-18T05:49:44.004Z,82.60
2023-02-18T05:52:13.259Z,82.50
2023-02-18T05:54:41.657Z,83.20
2023-02-18T05:57:11.833Z,83.20
2023-02-18T05:59:40.044Z,83.20
2023-02-18T06:02:08.238Z,83.50
2023-02-18T06:04:36.403Z,83.30
2023-02-18T06:07:04.965Z,83.70
2023-02-18T06:09:33.189Z,82.80
2023-02-18T06:12:01.462Z,82.50
2023-02-18T06:14:31.057Z,81.90
2023-02-18T06:16:59.314Z,82.00
2023-02-18T06:19:27.585Z,82.00
2023-02-18T06:21:56.120Z,81.60
2023-02-18T06:24:24.293Z,81.90
2023-02-18T06:26:52.607Z,82.20
2023-02-18T06:29:20.844Z,82.60
2023-02-18T06:31:50.489Z,82.40
2023-02-18T06:34:18.785Z,82.90
2023-02-18T06:36:47.067Z,82.10
2023-02-18T06:39:15.284Z,82.60
2023-02-18T06:41:43.493Z,82.80
2023-02-18T06:44:12.321Z,82.80
2023-02-18T06:46:40.527Z,83.60
2023-02-18T06:49:10.268Z,83.80
2023-02-18T06:51:38.544Z,83.70
2023-02-18T06:54:07.010Z,83.60
2023-02-18T06:56:35.290Z,83.70
2023-02-18T06:59:03.531Z,83.90
2023-02-18T07:01:31.766Z,83.80
2023-02-18T07:04:00.028Z,83.90
2023-02-18T07:06:29.636Z,84.10
2023-02-18T07:08:57.983Z,83.70
2023-02-18T07:11:26.152Z,83.70
2023-02-18T07:13:54.313Z,83.50
2023-02-18T07:16:22.646Z,83.20
2023-02-18T07:18:50.851Z,83.40
2023-02-18T07:21:19.067Z,83.40
2023-02-18T07:23:48.630Z,83.30
2023-02-18T07:26:17.019Z,83.20
2023-02-18T07:28:45.595Z,83.40
2023-02-18T07:31:13.949Z,83.20
2023-02-18T07:33:42.235Z,83.00
2023-02-18T07:36:11.144Z,82.90
2023-02-18T07:38:40.842Z,83.00
2023-02-18T07:41:22.774Z,82.90
2023-02-18T07:43:51.486Z,82.90
2023-02-18T07:46:21.017Z,82.70
2023-02-18T07:48:49.305Z,82.60
2023-02-18T07:51:17.609Z,82.60
2023-02-18T07:53:45.890Z,82.10
2023-02-18T07:56:15.672Z,82.20
2023-02-18T07:58:43.889Z,82.50
2023-02-18T08:01:15.199Z,82.70
2023-02-18T08:03:44.014Z,83.00
2023-02-18T08:06:21.986Z,83.40
2023-02-18T08:08:50.188Z,83.50
2023-02-18T08:11:19.970Z,83.60
2023-02-18T08:13:48.473Z,83.20
2023-02-18T08:16:16.950Z,83.10
2023-02-18T08:18:45.490Z,82.90
2023-02-18T08:21:13.723Z,82.80
2023-02-18T08:23:42.089Z,83.30
2023-02-18T08:26:11.080Z,82.70
2023-02-18T08:28:45.633Z,83.30
2023-02-18T08:31:19.252Z,82.60
2023-02-18T08:33:47.697Z,82.90
2023-02-18T08:36:16.311Z,83.10
2023-02-18T08:38:44.612Z,83.10
2023-02-18T08:41:14.450Z,83.50
2023-02-18T08:43:44.212Z,83.30
2023-02-18T08:46:16.195Z,83.00
2023-02-18T08:48:53.566Z,83.20
2023-02-18T08:51:23.829Z,83.70
2023-02-18T08:53:52.072Z,83.50
2023-02-18T08:56:20.214Z,84.00
2023-02-18T08:58:49.810Z,83.10
2023-02-18T09:01:18.130Z,82.80
2023-02-18T09:03:46.352Z,83.60
2023-02-18T09:06:14.619Z,83.70
2023-02-18T09:08:42.839Z,83.50
2023-02-18T09:11:12.538Z,83.00
2023-02-18T09:13:41.127Z,83.10
2023-02-18T09:16:14.115Z,83.20
2023-02-18T09:18:42.945Z,83.10
2023-02-18T09:21:13.668Z,83.00
2023-02-18T09:23:42.023Z,82.80
2023-02-18T09:26:14.243Z,82.70
2023-02-18T09:28:42.612Z,82.40
2023-02-18T09:31:14.502Z,82.60
2023-02-18T09:33:46.304Z,82.20
2023-02-18T09:36:14.923Z,83.60
2023-02-18T09:38:43.295Z,82.60
2023-02-18T09:41:21.265Z,82.70
2023-02-18T09:43:52.771Z,83.50
2023-02-18T09:46:26.008Z,83.30
2023-02-18T09:48:54.689Z,83.20
2023-02-18T09:51:23.213Z,83.10
2023-02-18T09:53:51.573Z,83.10
2023-02-18T09:56:25.011Z,82.80
2023-02-18T09:58:54.180Z,83.00
2023-02-18T10:01:29.860Z,83.00
2023-02-18T10:04:01.774Z,83.00
2023-02-18T10:06:33.465Z,83.10
2023-02-18T10:09:04.366Z,84.00
2023-02-18T10:11:36.273Z,83.20
2023-02-18T10:14:10.523Z,82.80
2023-02-18T10:16:40.226Z,82.80
2023-02-18T10:19:23.760Z,83.00
2023-02-18T10:21:53.820Z,83.90
2023-02-18T10:24:30.277Z,84.10
2023-02-18T10:26:59.360Z,84.10
2023-02-18T10:29:29.352Z,84.30
2023-02-18T10:32:05.899Z,84.30
2023-02-18T10:34:42.745Z,84.10
2023-02-18T10:37:29.174Z,84.30
2023-02-18T10:40:07.407Z,84.10
2023-02-18T10:42:44.556Z,84.00
2023-02-18T10:45:24.705Z,84.10
2023-02-18T10:48:06.213Z,83.90
2023-02-18T10:50:39.419Z,83.90
2023-02-18T10:53:14.761Z,83.90
2023-02-18T10:55:45.363Z,84.10
2023-02-18T10:58:28.931Z,84.50
2023-02-18T11:00:57.808Z,84.20
2023-02-18T11:03:38.254Z,84.10
2023-02-18T11:06:16.102Z,83.90
2023-02-18T11:08:46.911Z,83.70
2023-02-18T11:11:18.747Z,84.10
2023-02-18T11:13:55.128Z,84.40
2023-02-18T11:16:23.865Z,84.20
2023-02-18T11:18:53.547Z,84.10
2023-02-18T11:21:27.717Z,83.90
2023-02-18T11:23:57.608Z,83.90
2023-02-18T11:26:31.450Z,83.90
2023-02-18T11:29:04.026Z,84.60
2023-02-18T11:31:44.248Z,84.00
2023-02-18T11:34:19.648Z,83.70
2023-02-18T11:36:49.255Z,84.10
2023-02-18T11:39:24.377Z,83.00
2023-02-18T11:41:57.502Z,83.10
2023-02-18T11:44:30.526Z,83.10
2023-02-18T11:47:01.869Z,82.30
2023-02-18T11:49:33.997Z,82.10
2023-02-18T11:52:15.465Z,82.30
2023-02-18T11:54:43.917Z,82.70
2023-02-18T11:57:14.780Z,82.10
2023-02-18T11:59:45.171Z,82.10
2023-02-18T12:02:29.046Z,82.10
2023-02-18T12:05:03.769Z,82.80
2023-02-18T12:07:40.929Z,83.10
2023-02-18T12:10:16.098Z,83.00
2023-02-18T12:12:48.685Z,83.10
2023-02-18T12:15:23.047Z,83.20
2023-02-18T12:18:03.696Z,83.10
2023-02-18T12:20:55.032Z,83.30
2023-02-18T12:23:34.420Z,83.50
2023-02-18T12:26:08.050Z,83.60
2023-02-18T12:28:49.862Z,84.30
2023-02-18T12:31:32.146Z,83.40
2023-02-18T12:34:14.979Z,83.20
2023-02-18T12:36:58.081Z,83.50
2023-02-18T12:39:40.041Z,83.50
2023-02-18T12:42:24.652Z,83.80
2023-02-18T12:45:09.676Z,83.40
2023-02-18T12:47:53.674Z,82.70
2023-02-18T12:50:35.522Z,83.00
2023-02-18T12:53:24.054Z,83.20
2023-02-18T12:56:01.077Z,83.10
2023-02-18T12:58:42.652Z,82.20
2023-02-18T13:01:24.881Z,87.50
2023-02-18T13:04:26.834Z,87.60
2023-02-18T13:07:19.678Z,86.90
2023-02-18T13:10:02.357Z,87.30
2023-02-18T13:12:38.942Z,87.10
2023-02-18T13:15:18.312Z,87.30
2023-02-18T13:17:48.543Z,87.70
2023-02-18T13:20:22.097Z,87.60
2023-02-18T13:22:53.200Z,86.90
2023-02-18T13:25:23.845Z,86.30
2023-02-18T13:28:02.418Z,86.00
2023-02-18T13:30:38.753Z,86.10
2023-02-18T13:33:16.699Z,86.40
2023-02-18T13:35:50.189Z,86.40
2023-02-18T13:38:58.156Z,86.70
2023-02-18T13:41:28.709Z,86.80
2023-02-18T13:43:56.948Z,86.70
2023-02-18T13:46:25.687Z,86.90
2023-02-18T13:48:56.624Z,87.20
2023-02-18T13:51:33.909Z,86.60
2023-02-18T13:54:06.301Z,86.80
2023-02-18T13:56:37.166Z,87.40
2023-02-18T13:59:12.916Z,87.30
2023-02-18T14:01:44.723Z,87.10
2023-02-18T14:04:35.561Z,87.20
2023-02-18T14:07:30.385Z,87.30
2023-02-18T14:10:00.049Z,86.90
2023-02-18T14:12:38.601Z,86.60
2023-02-18T14:15:40.518Z,87.80
2023-02-18T14:18:24.003Z,86.90
2023-02-18T14:20:52.754Z,86.80
2023-02-18T14:23:40.433Z,87.00
2023-02-18T14:26:19.228Z,86.90
2023-02-18T14:28:57.363Z,87.10
2023-02-18T14:31:48.474Z,87.70
2023-02-18T14:34:42.841Z,87.80
2023-02-18T14:37:51.041Z,87.90
2023-02-18T14:40:29.442Z,87.30
2023-02-18T14:43:05.926Z,87.30
2023-02-18T14:45:51.387Z,87.20
2023-02-18T14:48:39.911Z,87.40
2023-02-18T14:51:08.680Z,87.50
2023-02-18T14:53:43.388Z,87.10
2023-02-18T14:56:15.869Z,87.50
2023-02-18T14:58:47.181Z,87.30
2023-02-18T15:01:21.040Z,87.50
2023-02-18T15:03:51.293Z,86.80
2023-02-18T15:06:29.486Z,86.40
2023-02-18T15:08:58.042Z,86.50
2023-02-18T15:11:34.442Z,83.40
2023-02-18T15:14:03.654Z,84.90
2023-02-18T15:16:35.000Z,85.60
2023-02-18T15:19:06.118Z,86.00
2023-02-18T15:21:38.303Z,86.10
2023-02-18T15:24:09.513Z,86.70
2023-02-18T15:26:44.035Z,86.50
2023-02-18T15:29:19.598Z,84.10
2023-02-18T15:31:50.215Z,85.80
2023-02-18T15:34:33.943Z,85.90
2023-02-18T15:37:03.409Z,86.40
2023-02-18T15:39:33.604Z,87.40
2023-02-18T15:42:07.600Z,87.00
2023-02-18T15:44:37.886Z,86.70
2023-02-18T15:47:10.453Z,87.00
2023-02-18T15:49:40.158Z,86.40
2023-02-18T15:52:09.983Z,87.00
2023-02-18T15:54:42.179Z,87.20
2023-02-18T15:57:16.631Z,87.30
2023-02-18T15:59:47.457Z,87.20
2023-02-18T16:02:22.883Z,88.00
2023-02-18T16:04:55.796Z,87.20
2023-02-18T16:07:28.346Z,87.40
2023-02-18T16:10:20.755Z,87.40
2023-02-18T16:12:52.828Z,87.60
2023-02-18T16:15:26.790Z,87.90
2023-02-18T16:17:58.977Z,87.60
2023-02-18T16:20:31.879Z,87.50
2023-02-18T16:23:05.140Z,87.50
2023-02-18T16:25:43.441Z,87.50
2023-02-18T16:28:16.836Z,87.50
2023-02-18T16:30:46.539Z,87.50
2023-02-18T16:33:16.725Z,87.60
2023-02-18T16:35:50.716Z,87.50
2023-02-18T16:38:21.572Z,87.50
2023-02-18T16:40:50.760Z,87.40
2023-02-18T16:43:20.474Z,87.40
2023-02-18T16:45:51.271Z,87.50
2023-02-18T16:48:25.669Z,87.50
2023-02-18T16:50:54.701Z,87.60
2023-02-18T16:53:23.744Z,87.60
2023-02-18T16:55:52.475Z,87.80
2023-02-18T16:58:20.879Z,87.80
2023-02-18T17:00:52.596Z,88.60
2023-02-18T17:03:22.848Z,87.80
2023-02-18T17:05:51.238Z,87.70
2023-02-18T17:08:23.084Z,88.00
2023-02-18T17:10:53.465Z,88.10
2023-02-18T17:13:23.160Z,88.00
2023-02-18T17:15:53.690Z,89.70
2023-02-18T17:18:23.850Z,89.00
2023-02-18T17:20:53.457Z,88.60
2023-02-18T17:23:23.593Z,89.20
2023-02-18T17:25:53.106Z,88.40
2023-02-18T17:28:21.456Z,87.20
2023-02-18T17:30:56.382Z,86.40
2023-02-18T17:33:26.608Z,86.30
2023-02-18T17:35:55.135Z,84.70
2023-02-18T17:38:23.600Z,84.60
2023-02-18T17:40:51.994Z,85.00
2023-02-18T17:43:20.380Z,85.30
2023-02-18T17:45:52.037Z,85.70
2023-02-18T17:48:20.599Z,86.20
2023-02-18T17:50:50.203Z,87.40
2023-02-18T17:53:19.198Z,88.20
2023-02-18T17:55:48.572Z,88.10
2023-02-18T17:58:17.585Z,88.30
2023-02-18T18:00:47.957Z,88.50
2023-02-18T18:03:16.650Z,88.40
2023-02-18T18:05:49.044Z,88.40
2023-02-18T18:08:19.554Z,88.20
2023-02-18T18:10:50.465Z,87.90
2023-02-18T18:13:22.351Z,87.90
2023-02-18T18:15:51.625Z,87.70
2023-02-18T18:18:20.691Z,87.70
2023-02-18T18:20:51.642Z,87.30
2023-02-18T18:23:22.540Z,87.00
2023-02-18T18:25:53.156Z,87.20
2023-02-18T18:28:21.563Z,87.60
2023-02-18T18:30:52.355Z,87.80
2023-02-18T18:33:22.587Z,87.80
2023-02-18T18:35:52.942Z,87.70
2023-02-18T18:38:23.854Z,87.50
2023-02-18T18:40:52.752Z,87.60
2023-02-18T18:43:22.811Z,87.40
2023-02-18T18:45:51.849Z,87.10
2023-02-18T18:48:21.135Z,87.20
2023-02-18T18:50:50.140Z,87.40
2023-02-18T18:53:20.679Z,87.40
2023-02-18T18:55:51.584Z,87.40
2023-02-18T18:58:24.216Z,87.40
2023-02-18T19:00:54.859Z,87.40
2023-02-18T19:03:25.015Z,87.30
2023-02-18T19:05:53.489Z,87.30
2023-02-18T19:08:21.965Z,87.20
2023-02-18T19:10:54.110Z,87.30
2023-02-18T19:13:23.829Z,87.20
2023-02-18T19:15:54.520Z,87.10
2023-02-18T19:18:22.741Z,87.00
2023-02-18T19:20:50.878Z,86.90
2023-02-18T19:23:19.267Z,87.00
2023-02-18T19:25:47.512Z,87.00
2023-02-18T19:28:17.980Z,87.00
2023-02-18T19:30:47.398Z,86.90
2023-02-18T19:33:16.580Z,86.90
2023-02-18T19:35:45.187Z,86.90
2023-02-18T19:38:15.393Z,86.90
2023-02-18T19:40:44.633Z,86.80
2023-02-18T19:43:13.538Z,86.80
2023-02-18T19:45:44.021Z,86.70
2023-02-18T19:48:13.098Z,86.80
2023-02-18T19:50:42.682Z,86.70
2023-02-18T19:53:11.741Z,86.70
2023-02-18T19:55:40.359Z,86.50
2023-02-18T19:58:08.608Z,86.60
2023-02-18T20:00:36.950Z,86.60
2023-02-18T20:03:06.544Z,86.50
2023-02-18T20:05:38.429Z,86.50
2023-02-18T20:08:06.642Z,86.50
2023-02-18T20:10:35.104Z,86.50
2023-02-18T20:13:04.547Z,86.50
2023-02-18T20:15:32.830Z,86.50
2023-02-18T20:18:01.175Z,86.60
2023-02-18T20:20:30.925Z,86.60
2023-02-18T20:22:59.169Z,86.50
2023-02-18T20:25:28.282Z,86.40
2023-02-18T20:28:01.314Z,86.50
2023-02-18T20:30:30.439Z,86.70
2023-02-18T20:32:58.725Z,86.50
2023-02-18T20:35:27.058Z,86.40
2023-02-18T20:37:56.718Z,86.40
2023-02-18T20:40:25.047Z,86.40
2023-02-18T20:42:53.323Z,86.30
2023-02-18T20:45:21.625Z,86.40
2023-02-18T20:47:49.885Z,86.40
2023-02-18T20:50:18.242Z,86.60
2023-02-18T20:52:46.621Z,86.50
2023-02-18T20:55:16.231Z,86.50
2023-02-18T20:57:44.470Z,86.70
2023-02-18T21:00:13.792Z,86.80
2023-02-18T21:02:42.027Z,86.80
2023-02-18T21:05:10.282Z,86.90
2023-02-18T21:07:38.539Z,86.90
2023-02-18T21:10:07.376Z,87.00
2023-02-18T21:12:36.982Z,86.80
2023-02-18T21:15:05.829Z,86.90
2023-02-18T21:17:34.126Z,86.80
2023-02-18T21:20:02.405Z,87.00
2023-02-18T21:22:30.663Z,87.00
2023-02-18T21:25:00.394Z,86.90
2023-02-18T21:27:28.676Z,86.90
2023-02-18T21:30:00.117Z,87.00
2023-02-18T21:32:28.538Z,86.80
2023-02-18T21:34:56.816Z,86.90
2023-02-18T21:37:25.058Z,86.90
2023-02-18T21:39:53.364Z,86.90
2023-02-18T21:42:21.588Z,86.90
2023-02-18T21:44:49.916Z,87.10
2023-02-18T21:47:19.474Z,87.00
2023-02-18T21:49:47.716Z,86.90
2023-02-18T21:52:15.919Z,86.90
2023-02-18T21:54:45.515Z,86.90
2023-02-18T21:57:16.278Z,87.10
2023-02-18T21:59:45.203Z,87.80
2023-02-18T22:02:17.488Z,86.90
2023-02-18T22:04:48.112Z,86.90
2023-02-18T22:07:17.351Z,86.90
2023-02-18T22:09:48.272Z,86.90
2023-02-18T22:12:17.304Z,87.10
2023-02-18T22:14:45.922Z,87.00
2023-02-18T22:17:15.956Z,87.10
2023-02-18T22:19:44.340Z,87.00
2023-02-18T22:22:14.939Z,87.10
2023-02-18T22:24:43.180Z,87.00
2023-02-18T22:27:11.840Z,87.10
2023-02-18T22:29:40.212Z,87.00
2023-02-18T22:32:08.599Z,87.10
2023-02-18T22:34:37.048Z,86.90
2023-02-18T22:37:05.244Z,86.90
2023-02-18T22:39:34.969Z,87.00
2023-02-18T22:42:03.207Z,87.10
2023-02-18T22:44:31.448Z,87.00
2023-02-18T22:46:59.745Z,86.90
2023-02-18T22:49:27.948Z,87.00
2023-02-18T22:51:56.271Z,86.90
2023-02-18T22:54:24.494Z,86.90
2023-02-18T22:56:54.800Z,87.00
2023-02-18T22:59:23.098Z,87.10
2023-02-18T23:01:52.890Z,87.00
2023-02-18T23:04:22.273Z,87.00
2023-02-18T23:06:51.511Z,86.90
2023-02-18T23:09:21.685Z,87.00
2023-02-18T23:11:56.345Z,87.10
2023-02-18T23:14:25.358Z,86.90
2023-02-18T23:17:17.783Z,86.90
2023-02-18T23:19:47.867Z,86.90
2023-02-18T23:22:17.660Z,87.00
2023-02-18T23:24:49.500Z,87.10
2023-02-18T23:27:19.349Z,87.00
2023-02-18T23:29:48.331Z,87.10
2023-02-18T23:32:16.745Z,87.00
2023-02-18T23:34:45.163Z,87.00
2023-02-18T23:37:13.700Z,87.20
2023-02-18T23:39:41.938Z,87.00
2023-02-18T23:42:10.210Z,87.20
2023-02-18T23:44:39.891Z,87.20
2023-02-18T23:47:08.792Z,87.00
2023-02-18T23:49:37.063Z,87.00
2023-02-18T23:52:05.764Z,86.80
2023-02-18T23:54:34.232Z,86.80
2023-02-18T23:57:02.545Z,87.80
2023-02-18T23:59:30.744Z,87.00
